x

Southeast Hawaii - 205 Nm Southeast Of Hilo, Hi (51004) Wave Buoy

10:50pm - Wed 1st Apr 2015 All times are HST. -10 hours from GMT.

  • Sig Wave height 8.9ft
  • Swell Direction
  • Peak Period 9s
  • Average Period 6s
  • Wind
    22mph, 27mph gusts
  • Sea Temp 77°f
  • Air Temp 77°f
  • Sea Pressure 1014.5mb
  • Southeast Hawaii - 205 Nm Southeast Of Hilo, Hi
  • Southeast Hawaii - 205 Nm Southeast Of Hilo, Hi

More Historic Weather Station data

Upgrade to MSW Pro to gain access to the past 30 days of data for over 8000 Wavebouys and Weather Stations around the globe.

Join Pro

Comparision Forecast

View Surf forecast
   
Wed 04/01 10:50pm 9ft 9s 6s 22 27 mph 1014.5mb 77f 77f
9:50pm 9ft 8s 7s 22 27 mph 1014.6mb 77f 77f
8:50pm 9ft 9s 6s 20 27 mph 1014.3mb 77f 77f
7:50pm 9ft 9s 6s 20 25 mph 1013.6mb 77f 76f
6:50pm 9ft 9s 7s 20 25 mph 1012.9mb 77f 77f
5:50pm 8.5ft 9s 6s 20 25 mph 1012.4mb 77f 77f
4:50pm 9ft 9s 7s 20 25 mph 1012.3mb 77f 77f
3:50pm 9ft 9s 7s 22 29 mph 1012.4mb 77f 76f
2:50pm 9ft 9s 6s 22 27 mph 1012.5mb 77f 78f
1:50pm 8ft 8s 6s 22 27 mph 1012.9mb 77f 77f
12:50pm 9ft 9s 6s 22 25 mph 1013.8mb 77f 77f
11:50am 9ft 9s 7s 20 25 mph 1014.6mb 77f 77f
10:50am 8ft 8s 6s 20 25 mph 1015mb 77f 77f
9:50am 8.5ft 9s 7s 22 25 mph 1014.9mb 77f 77f
8:50am 8.5ft 9s 7s 22 25 mph 1014.9mb 77f 77f
7:50am 8.5ft 9s 7s 20 22 mph 1014.6mb 77f 77f
6:50am 8ft 10s 7s 20 25 mph 1014mb 77f 77f
5:50am 8ft 9s 6s 20 25 mph 1013.5mb 77f 77f
4:50am 9ft 9s 7s 20 22 mph 1013.1mb 77f 76f
3:50am 9ft 9s 7s 18 22 mph 1013mb 77f 76f
2:50am 9ft 10s 7s 18 22 mph 1013.4mb 77f 76f
1:50am 9ft 9s 7s 18 22 mph 1014mb 77f 77f
12:50am 8ft 9s 7s 20 25 mph 1014.9mb 77f 77f
Tue 03/31 11:50pm 9.5ft 10s 7s 20 22 mph 1015.8mb 77f 77f
10:50pm 9ft 8s 7s 20 22 mph 1016.4mb 77f 77f
9:50pm 9ft 9s 7s 20 25 mph 1016.4mb 77f 77f
8:50pm 9ft 9s 7s 18 22 mph 1016.1mb 77f 77f
7:50pm 8ft 9s 7s 18 22 mph 1015.8mb 77f 76f
6:50pm 8.5ft 8s 7s 16 18 mph 1015.3mb 77f 77f
5:50pm 8ft 9s 6s 16 20 mph 1014.2mb 77f 77f
4:50pm 9ft 9s 7s 18 22 mph 1013.3mb 77f 77f
3:50pm 9ft 9s 7s 20 22 mph 1012.9mb 77f 77f
2:50pm 8ft 8s 6s 20 25 mph 1013.4mb 77f 77f
1:50pm 8.5ft 9s 7s 20 25 mph 1014.4mb 77f 77f
12:50pm 9ft 8s 7s 20 25 mph 1015.8mb 77f 77f
11:50am 9ft 9s 7s 20 22 mph 1016.8mb 77f 77f
10:50am 8ft 9s 6s 20 25 mph 1017.3mb 77f 77f
9:50am 8.5ft 9s 7s 20 25 mph 1017.1mb 77f 77f
8:50am 9ft 9s 7s 20 25 mph 1017mb 77f 77f
7:50am 9ft 9s 7s 20 25 mph 1016.7mb 77f 77f
6:50am 8.5ft 8s 7s 20 25 mph 1016mb 77f 76f
5:50am 9ft 9s 7s 18 22 mph 1015.5mb 77f 76f
4:50am 9ft 9s 7s 18 22 mph 1014.6mb 77f 76f
3:50am 9ft 8s 7s 13 20 mph 1014.8mb 77f 75f
2:50am 8ft 10s 7s 9 13 mph 1015.4mb 77f 75f
1:50am 9ft 9s 7s 16 20 mph 1015.7mb 77f 76f
12:50am 9ft 10s 7s 20 22 mph 1016.5mb 77f 76f
Mon 03/30 11:50pm 8ft 9s 7s 18 22 mph 1017mb 77f 77f
10:50pm 8.5ft 13s 7s 18 22 mph 1017.5mb 77f 77f
9:50pm 8.5ft 10s 7s 18 22 mph 1017.8mb 77f 77f
8:50pm 9ft 9s 7s 18 22 mph 1017.4mb 77f 77f
7:50pm 8.5ft 9s 7s 20 25 mph 1016.9mb 77f 77f
6:50pm 8.5ft 10s 7s 20 22 mph 1016.3mb 77f 77f
5:50pm 9ft 9s 7s 20 22 mph 1015.5mb 77f 77f
4:50pm 8ft 9s 7s 18 22 mph 1015.1mb 77f 77f
3:50pm 8.5ft 9s 7s 18 22 mph 1015.2mb 77f 77f
2:50pm 8ft 7s 7s 20 22 mph 1015.6mb 77f 77f
1:50pm 8ft 10s 7s 16 20 mph 1016.4mb 77f 77f
12:50pm 8.5ft 10s 7s 16 20 mph 1017.3mb 77f 77f
11:50am 9ft 10s 7s 16 22 mph 1018.1mb 77f 77f
10:50am 9ft 10s 7s 18 22 mph 1018.8mb 77f 77f
9:50am 8ft 10s 7s 18 20 mph 1018.9mb 77f 77f
8:50am 8ft 8s 6s 20 22 mph 1018.7mb 77f 77f
7:50am 8.5ft 10s 7s 18 20 mph 1018.6mb 77f 77f
6:50am 8ft 9s 7s 18 22 mph 1018mb 77f 76f
5:50am 8.5ft 10s 7s 20 25 mph 1017.6mb 77f 76f
4:50am 9ft 9s 7s 18 22 mph 1017.2mb 77f 76f
3:50am 9ft 9s 7s 20 22 mph 1017mb 77f 77f
2:50am 8ft 9s 7s 20 25 mph 1017.1mb 77f 77f
1:50am 9ft 8s 7s 20 25 mph 1017.7mb 77f 77f
12:50am 8.5ft 8s 7s 20 25 mph 1018.5mb 77f 77f
Sun 03/29 11:50pm 8ft 9s 6s 20 25 mph 1019.1mb 77f 77f
10:50pm 8ft 9s 7s 20 25 mph 1019.6mb 77f 77f
9:50pm 8ft 9s 7s 20 25 mph 1019.9mb 77f 77f
8:50pm 8ft 10s 7s 20 22 mph 1019.4mb 77f 77f
7:50pm 8ft 8s 7s 20 25 mph 1018.6mb 77f 77f
6:50pm 8ft 8s 6s 20 22 mph 1018.2mb 77f 77f
5:50pm 8ft 9s 6s 20 22 mph 1017.6mb 77f 77f
4:50pm 8.5ft 9s 7s 16 20 mph 1016.8mb 77f 78f
3:50pm 8.5ft 9s 7s 18 20 mph 1016.5mb 77f 77f
2:50pm 8ft 8s 6s 13 18 mph 1017mb 77f 75f
1:50pm 9ft 9s 7s 16 20 mph 1017.3mb 77f 77f
12:50pm 8.5ft 9s 7s 20 25 mph 1017.9mb 77f 77f
11:50am 9ft 10s 7s 18 22 mph 1018.9mb 77f 77f
10:50am 9ft 9s 7s 18 20 mph 1019.8mb 77f 77f